createdAt,value
2022-09-12T00:00:54.057Z,17.4
2022-09-12T00:01:57.663Z,19
2022-09-12T00:04:01.456Z,17.6
2022-09-12T00:06:05.284Z,16.5
2022-09-12T00:08:09.131Z,16.7
2022-09-12T00:10:17.883Z,18.2
2022-09-12T00:14:25.518Z,15.2
2022-09-12T00:16:29.481Z,18
2022-09-12T00:18:33.215Z,15.4
2022-09-12T00:20:37.091Z,16.9
2022-09-12T00:22:40.898Z,17.3
2022-09-12T00:24:48.024Z,19
2022-09-12T00:26:51.866Z,18
2022-09-12T00:28:55.725Z,17.6
2022-09-12T00:30:59.579Z,16.7
2022-09-12T00:33:03.401Z,17.1
2022-09-12T00:35:07.259Z,17.3
2022-09-12T00:37:11.091Z,19.2
2022-09-12T00:39:18.213Z,19.3
2022-09-12T00:41:22.076Z,19.5
2022-09-12T00:43:25.921Z,19
2022-09-12T00:45:29.777Z,19.4
2022-09-12T00:47:33.574Z,17.8
2022-09-12T00:49:37.438Z,18.5
2022-09-12T00:51:41.293Z,19.1
2022-09-12T00:53:48.452Z,19.9
2022-09-12T00:55:52.286Z,17.5
2022-09-12T00:57:56.121Z,17.2
2022-09-12T00:58:59.677Z,19
2022-09-12T01:01:03.643Z,17.2
2022-09-12T01:03:07.357Z,16.8
2022-09-12T01:07:18.355Z,20.4
2022-09-12T01:11:26.036Z,16.9
2022-09-12T01:13:29.884Z,17.1
2022-09-12T01:15:33.724Z,17.8
2022-09-12T01:17:37.730Z,18.4
2022-09-12T01:21:48.539Z,16.7
2022-09-12T01:23:52.387Z,17.1
2022-09-12T01:25:56.233Z,17.1
2022-09-12T01:28:00.105Z,17.3
2022-09-12T01:30:03.944Z,16.5
2022-09-12T01:32:07.818Z,17.1
2022-09-12T01:36:18.782Z,17.3
2022-09-12T01:38:22.605Z,17.3
2022-09-12T01:42:30.312Z,15.5
2022-09-12T01:46:37.993Z,17.8
2022-09-12T01:50:48.981Z,18.5
2022-09-12T01:52:52.841Z,18.2
2022-09-12T01:54:56.656Z,16.7
2022-09-12T01:57:21.591Z,17.8
2022-09-12T02:01:29.299Z,17.5
2022-09-12T02:09:47.937Z,16.7
2022-09-12T02:15:59.419Z,17.1
2022-09-12T02:20:17.578Z,16.4
2022-09-12T02:24:18.061Z,18.3
2022-09-12T02:32:36.665Z,19.2
2022-09-12T02:34:40.499Z,17.2
2022-09-12T02:36:44.324Z,18.6
2022-09-12T02:38:48.149Z,15.9
2022-09-12T02:40:52.031Z,17.3
2022-09-12T02:42:55.845Z,16.6
2022-09-12T02:44:59.676Z,15.8
2022-09-12T02:47:06.796Z,17.4
2022-09-12T02:49:10.650Z,16.2
2022-09-12T02:51:14.442Z,17.5
2022-09-12T02:52:18.033Z,18.4
2022-09-12T02:54:21.861Z,17.6
2022-09-12T02:56:25.699Z,17.3
2022-09-12T02:58:29.542Z,16.7
2022-09-12T03:00:36.636Z,18.3
2022-09-12T03:02:40.523Z,15.8
2022-09-12T03:04:44.373Z,16
2022-09-12T03:06:48.191Z,17.1
2022-09-12T03:08:52.037Z,17.5
2022-09-12T03:10:55.861Z,17.6
2022-09-12T03:12:59.702Z,17.3
2022-09-12T03:17:10.619Z,20.4
2022-09-12T03:19:14.463Z,15.5
2022-09-12T03:21:18.296Z,19.3
2022-09-12T03:23:22.145Z,19.4
2022-09-12T03:25:26.002Z,19.6
2022-09-12T03:27:29.852Z,19.8
2022-09-12T03:33:44.619Z,19.3
2022-09-12T03:35:48.452Z,19.9
2022-09-12T03:39:56.173Z,20
2022-09-12T03:48:14.825Z,22.5
2022-09-12T03:49:18.376Z,22.1
2022-09-12T03:51:22.203Z,21.1
2022-09-12T03:53:26.046Z,20.4
2022-09-12T03:55:29.894Z,21.3
2022-09-12T03:57:37.008Z,21.1
2022-09-12T03:59:40.859Z,20.7
2022-09-12T04:01:44.699Z,21.7
2022-09-12T04:03:48.554Z,19.6
2022-09-12T04:05:52.367Z,20
2022-09-12T04:07:56.216Z,20.1
2022-09-12T04:10:00.047Z,20.6
2022-09-12T04:16:14.900Z,21.7
2022-09-12T04:18:18.687Z,21
2022-09-12T04:20:22.512Z,20.1
2022-09-12T04:22:26.429Z,22
2022-09-12T04:26:37.269Z,22.1
2022-09-12T04:41:07.394Z,27.5
2022-09-12T04:43:14.402Z,25.9
2022-09-12T04:45:15.095Z,27.1
2022-09-12T04:46:18.662Z,28.7
2022-09-12T04:48:22.492Z,27.8
2022-09-12T04:52:30.183Z,25
2022-09-12T04:54:37.259Z,27
2022-09-12T04:56:41.117Z,26.5
2022-09-12T04:58:45.020Z,25.9
2022-09-12T05:00:48.833Z,24.5
2022-09-12T05:02:52.637Z,23
2022-09-12T05:04:56.456Z,24.8
2022-09-12T05:09:07.413Z,26.6
2022-09-12T05:11:11.237Z,26.4
2022-09-12T05:13:15.105Z,26.6
2022-09-12T05:15:18.921Z,23.9
2022-09-12T05:19:26.599Z,24.4
2022-09-12T05:23:37.664Z,29.4
2022-09-12T05:25:41.375Z,25.7
2022-09-12T05:27:48.621Z,26.2
2022-09-12T05:29:49.083Z,24.5
2022-09-12T05:33:56.755Z,23.2
2022-09-12T18:17:04.988Z,6.7
2022-09-12T18:19:08.698Z,5.4
2022-09-12T18:21:12.460Z,5.6
2022-09-12T18:23:40.636Z,6.8
2022-09-12T18:25:44.416Z,5.4
2022-09-12T18:27:48.160Z,6.1
2022-09-12T18:30:10.633Z,5.2
2022-09-12T18:31:59.014Z,6.8
2022-09-12T18:34:02.855Z,6
2022-09-12T18:36:06.523Z,5.9
2022-09-12T18:38:10.276Z,5.3
2022-09-12T18:40:14.267Z,5.1
2022-09-12T18:42:17.812Z,5.8
2022-09-12T18:44:24.848Z,6.6
2022-09-12T18:46:28.842Z,5.3
2022-09-12T18:48:32.393Z,5.5
2022-09-12T18:50:36.147Z,6.3
2022-09-12T18:52:39.896Z,6.1
2022-09-12T18:54:43.674Z,6.3
2022-09-12T18:56:47.457Z,7.7
2022-09-12T18:58:54.543Z,6
2022-09-12T19:00:58.341Z,6.2
2022-09-12T19:03:02.065Z,6.5
2022-09-12T19:07:09.615Z,6.4
2022-09-12T19:09:13.401Z,6.3
2022-09-12T19:11:17.192Z,5.9
2022-09-12T19:13:24.248Z,6.4
2022-09-12T19:15:28.045Z,6.4
2022-09-12T19:17:31.831Z,6.7
2022-09-12T19:20:39.153Z,8
2022-09-12T19:22:43.073Z,6.8
2022-09-12T19:24:46.748Z,8
2022-09-12T19:26:53.831Z,7.1
2022-09-12T19:28:57.596Z,8.9
2022-09-12T19:31:01.468Z,8.4
2022-09-12T19:33:05.166Z,8.4
2022-09-12T19:35:08.941Z,7.7
2022-09-12T19:37:12.735Z,7.6
2022-09-12T19:39:16.549Z,7.9
2022-09-12T19:41:23.626Z,7.5
2022-09-12T19:43:27.440Z,7.9
2022-09-12T19:45:31.198Z,7.3
2022-09-12T19:47:34.973Z,8
2022-09-12T19:49:38.769Z,7.5
2022-09-12T19:51:42.551Z,7.5
2022-09-12T19:53:46.366Z,7.8
2022-09-12T20:00:00.980Z,7.7
2022-09-12T20:04:08.559Z,8
2022-09-12T20:06:12.367Z,7.3
2022-09-12T20:08:16.159Z,7.2
2022-09-12T20:10:23.216Z,8.3
2022-09-12T20:12:27.000Z,7.9
2022-09-12T20:14:30.806Z,7.6
2022-09-12T20:15:34.350Z,7.9
2022-09-12T20:17:38.175Z,7.8
2022-09-12T20:19:41.990Z,7.8
2022-09-12T20:21:45.775Z,8.4
2022-09-12T20:23:52.856Z,7.8
2022-09-12T20:25:56.623Z,8.7
2022-09-12T20:28:00.506Z,7.5
2022-09-12T20:30:04.230Z,8.3
2022-09-12T20:32:08.040Z,8.5
2022-09-12T20:34:11.847Z,8.6
2022-09-12T20:36:15.638Z,8.3
2022-09-12T20:38:22.745Z,8.6
2022-09-12T20:40:26.576Z,8
2022-09-12T20:42:30.328Z,7.7
2022-09-12T20:44:34.139Z,8.1
2022-09-12T20:46:38.014Z,8.3
2022-09-12T20:48:41.779Z,8.2
2022-09-12T20:50:45.553Z,9.7
2022-09-12T20:52:52.616Z,9
2022-09-12T20:54:56.388Z,7.6
2022-09-12T20:57:00.202Z,8.6
2022-09-12T20:59:03.984Z,8.3
2022-09-12T21:01:07.806Z,8.6
2022-09-12T21:03:11.600Z,7.8
2022-09-12T21:05:15.400Z,7.8
2022-09-12T21:11:30.122Z,8.8
2022-09-12T21:12:33.644Z,8.5
2022-09-12T21:14:37.452Z,7.8
2022-09-12T21:16:41.245Z,8.8
2022-09-12T21:18:46.895Z,9.4
2022-09-12T21:22:56.232Z,8.6
2022-09-12T21:25:00.027Z,9.1
2022-09-12T21:27:04.518Z,9.2
2022-09-12T21:29:07.652Z,9.5
2022-09-12T21:31:11.565Z,8.9
2022-09-12T21:33:15.247Z,8.2
2022-09-12T21:35:22.359Z,9.9
2022-09-12T21:39:29.962Z,8.4
2022-09-12T21:43:37.664Z,9.3
2022-09-12T21:49:52.278Z,9.3
2022-09-12T21:53:59.889Z,9.7
2022-09-12T21:56:03.711Z,9.8
2022-09-12T21:58:07.508Z,10.4
2022-09-12T22:00:11.347Z,9.6
2022-09-12T22:02:15.179Z,9.5
2022-09-12T22:04:22.260Z,9.5
2022-09-12T22:06:26.065Z,9.1
2022-09-12T22:08:29.875Z,8.4
2022-09-12T22:10:54.276Z,10.7
2022-09-12T22:12:58.064Z,9.7
2022-09-12T22:15:17.544Z,8.8
2022-09-12T22:17:08.976Z,10
2022-09-12T22:19:12.767Z,9.6
2022-09-12T22:21:16.584Z,8.6
2022-09-12T22:23:24.559Z,9.2
2022-09-12T22:25:24.214Z,8.4
2022-09-12T22:27:28.010Z,8.6
2022-09-12T22:29:31.852Z,8.6
2022-09-12T22:31:38.926Z,9.9
2022-09-12T22:33:42.723Z,8.5
2022-09-12T22:35:46.510Z,9
2022-09-12T22:37:50.436Z,9.1
2022-09-12T22:39:54.197Z,8.2
2022-09-12T22:41:57.928Z,9
2022-09-12T22:44:01.727Z,8.8
2022-09-12T22:46:08.894Z,10.2
2022-09-12T22:48:12.624Z,8.1
2022-09-12T22:50:16.463Z,8.2
2022-09-12T22:52:20.243Z,8.5
2022-09-12T22:54:24.054Z,8.2
2022-09-12T22:56:27.859Z,7.7
2022-09-12T22:58:31.661Z,8.6
2022-09-12T23:00:38.816Z,8.6
2022-09-12T23:02:42.549Z,8
2022-09-12T23:04:46.355Z,8.3
2022-09-12T23:05:49.878Z,8.8
2022-09-12T23:07:53.694Z,8.7
2022-09-12T23:09:57.494Z,8.2
2022-09-12T23:12:01.308Z,7.7
2022-09-12T23:14:08.397Z,8.3
2022-09-12T23:16:12.246Z,8.4
2022-09-12T23:18:16.007Z,7.8
2022-09-12T23:20:19.830Z,8.2
2022-09-12T23:22:23.645Z,8.2
2022-09-12T23:24:27.602Z,7.8
2022-09-12T23:26:31.232Z,8
2022-09-12T23:28:38.311Z,8.3
2022-09-12T23:34:49.683Z,7.3
2022-09-12T23:36:53.493Z,7.4
2022-09-12T23:38:57.298Z,8.2
2022-09-12T23:43:08.197Z,7.6
2022-09-12T23:55:31.004Z,7.8
2022-09-12T23:57:38.095Z,7.4
2022-09-12T23:59:41.902Z,7.9
